sensor_id;sensor_type;location;lat;lon;timestamp;pressure;altitude;pressure_sealevel;temperature;humidity
71666;BME280;59503;53.486;10.196;2023-07-20T00:01:13;101258.97;;;11.33;100.00
71666;BME280;59503;53.486;10.196;2023-07-20T00:03:38;101253.16;;;11.35;100.00
71666;BME280;59503;53.486;10.196;2023-07-20T00:06:04;101253.50;;;11.33;100.00
71666;BME280;59503;53.486;10.196;2023-07-20T00:08:30;101245.00;;;11.35;100.00
71666;BME280;59503;53.486;10.196;2023-07-20T00:10:55;101238.34;;;11.32;100.00
71666;BME280;59503;53.486;10.196;2023-07-20T00:13:21;101237.63;;;11.35;100.00
71666;BME280;59503;53.486;10.196;2023-07-20T00:15:47;101242.34;;;11.38;100.00
71666;BME280;59503;53.486;10.196;2023-07-20T00:18:12;101241.72;;;11.45;100.00
71666;BME280;59503;53.486;10.196;2023-07-20T00:20:38;101237.94;;;11.49;100.00
71666;BME280;59503;53.486;10.196;2023-07-20T00:23:04;101240.03;;;11.56;100.00
71666;BME280;59503;53.486;10.196;2023-07-20T00:25:29;101235.81;;;11.58;100.00
71666;BME280;59503;53.486;10.196;2023-07-20T00:27:55;101252.41;;;11.69;100.00
71666;BME280;59503;53.486;10.196;2023-07-20T00:30:20;101241.97;;;11.71;100.00
71666;BME280;59503;53.486;10.196;2023-07-20T00:32:46;101245.25;;;11.80;100.00
71666;BME280;59503;53.486;10.196;2023-07-20T00:35:11;101246.56;;;11.86;100.00
71666;BME280;59503;53.486;10.196;2023-07-20T00:37:38;101229.06;;;11.87;100.00
71666;BME280;59503;53.486;10.196;2023-07-20T00:40:04;101235.50;;;11.98;100.00
71666;BME280;59503;53.486;10.196;2023-07-20T00:42:30;101231.72;;;12.02;100.00
71666;BME280;59503;53.486;10.196;2023-07-20T00:44:56;101227.53;;;12.08;100.00
71666;BME280;59503;53.486;10.196;2023-07-20T00:47:21;101238.59;;;12.15;100.00
71666;BME280;59503;53.486;10.196;2023-07-20T00:49:47;101225.19;;;12.07;100.00
71666;BME280;59503;53.486;10.196;2023-07-20T00:52:13;101236.38;;;12.21;100.00
71666;BME280;59503;53.486;10.196;2023-07-20T00:54:40;101238.38;;;12.24;100.00
71666;BME280;59503;53.486;10.196;2023-07-20T00:57:07;101234.97;;;12.30;100.00
71666;BME280;59503;53.486;10.196;2023-07-20T00:59:34;101237.03;;;12.37;100.00
71666;BME280;59503;53.486;10.196;2023-07-20T01:01:59;101239.03;;;12.40;100.00
71666;BME280;59503;53.486;10.196;2023-07-20T01:04:25;101245.34;;;12.44;100.00
71666;BME280;59503;53.486;10.196;2023-07-20T01:06:58;101236.09;;;12.48;100.00
71666;BME280;59503;53.486;10.196;2023-07-20T01:09:30;101240.84;;;12.52;100.00
71666;BME280;59503;53.486;10.196;2023-07-20T01:14:51;101249.56;;;12.61;100.00
71666;BME280;59503;53.486;10.196;2023-07-20T01:17:16;101242.59;;;12.63;100.00
71666;BME280;59503;53.486;10.196;2023-07-20T01:19:42;101245.38;;;12.67;100.00
71666;BME280;59503;53.486;10.196;2023-07-20T01:22:28;101235.63;;;12.66;100.00
71666;BME280;59503;53.486;10.196;2023-07-20T01:25:23;101243.88;;;12.69;100.00
71666;BME280;59503;53.486;10.196;2023-07-20T01:31:46;101239.38;;;12.80;100.00
71666;BME280;59503;53.486;10.196;2023-07-20T01:33:41;101238.34;;;12.88;100.00
71666;BME280;59503;53.486;10.196;2023-07-20T01:36:08;101235.25;;;12.90;100.00
71666;BME280;59503;53.486;10.196;2023-07-20T01:38:36;101243.50;;;12.93;100.00
71666;BME280;59503;53.486;10.196;2023-07-20T01:41:02;101229.00;;;12.89;100.00
71666;BME280;59503;53.486;10.196;2023-07-20T01:43:28;101229.81;;;12.90;100.00
71666;BME280;59503;53.486;10.196;2023-07-20T01:45:53;101241.50;;;12.90;100.00
71666;BME280;59503;53.486;10.196;2023-07-20T01:48:18;101233.56;;;12.82;100.00
71666;BME280;59503;53.486;10.196;2023-07-20T01:50:44;101226.94;;;12.83;100.00
71666;BME280;59503;53.486;10.196;2023-07-20T01:53:10;101234.47;;;12.89;100.00
71666;BME280;59503;53.486;10.196;2023-07-20T01:55:35;101231.31;;;12.87;100.00
71666;BME280;59503;53.486;10.196;2023-07-20T01:58:00;101228.56;;;12.87;100.00
71666;BME280;59503;53.486;10.196;2023-07-20T02:00:27;101239.19;;;12.92;100.00
71666;BME280;59503;53.486;10.196;2023-07-20T02:02:52;101226.28;;;12.89;100.00
71666;BME280;59503;53.486;10.196;2023-07-20T02:05:18;101223.59;;;12.93;100.00
71666;BME280;59503;53.486;10.196;2023-07-20T02:07:43;101215.47;;;12.96;100.00
71666;BME280;59503;53.486;10.196;2023-07-20T02:10:09;101216.59;;;12.92;100.00
71666;BME280;59503;53.486;10.196;2023-07-20T02:12:35;101225.16;;;12.94;100.00
71666;BME280;59503;53.486;10.196;2023-07-20T02:15:02;101223.59;;;12.93;100.00
71666;BME280;59503;53.486;10.196;2023-07-20T02:17:27;101227.91;;;12.94;100.00
71666;BME280;59503;53.486;10.196;2023-07-20T02:19:53;101224.09;;;12.98;100.00
71666;BME280;59503;53.486;10.196;2023-07-20T02:22:20;101218.16;;;12.93;100.00
71666;BME280;59503;53.486;10.196;2023-07-20T02:24:46;101226.75;;;12.95;100.00
71666;BME280;59503;53.486;10.196;2023-07-20T02:27:11;101226.75;;;12.95;100.00
71666;BME280;59503;53.486;10.196;2023-07-20T02:29:37;101236.09;;;12.94;100.00
71666;BME280;59503;53.486;10.196;2023-07-20T02:32:03;101233.03;;;12.95;100.00
71666;BME280;59503;53.486;10.196;2023-07-20T02:34:28;101243.94;;;12.95;100.00
71666;BME280;59503;53.486;10.196;2023-07-20T02:36:54;101236.88;;;12.94;100.00
71666;BME280;59503;53.486;10.196;2023-07-20T02:39:21;101238.47;;;12.95;100.00
71666;BME280;59503;53.486;10.196;2023-07-20T02:41:47;101239.19;;;12.92;100.00
71666;BME280;59503;53.486;10.196;2023-07-20T02:44:14;101250.16;;;12.96;100.00
71666;BME280;59503;53.486;10.196;2023-07-20T02:46:39;101255.69;;;12.99;100.00
71666;BME280;59503;53.486;10.196;2023-07-20T02:49:04;101254.88;;;12.99;100.00
71666;BME280;59503;53.486;10.196;2023-07-20T02:51:30;101246.47;;;13.07;100.00
71666;BME280;59503;53.486;10.196;2023-07-20T02:53:55;101230.84;;;13.04;100.00
71666;BME280;59503;53.486;10.196;2023-07-20T02:56:21;101223.31;;;12.98;100.00
71666;BME280;59503;53.486;10.196;2023-07-20T02:58:48;101225.22;;;12.97;100.00
71666;BME280;59503;53.486;10.196;2023-07-20T03:01:13;101228.09;;;13.04;100.00
71666;BME280;59503;53.486;10.196;2023-07-20T03:03:41;101234.59;;;12.96;100.00
71666;BME280;59503;53.486;10.196;2023-07-20T03:06:15;101246.34;;;13.00;100.00
71666;BME280;59503;53.486;10.196;2023-07-20T03:08:41;101242.03;;;12.99;100.00
71666;BME280;59503;53.486;10.196;2023-07-20T03:11:07;101240.03;;;12.96;100.00
71666;BME280;59503;53.486;10.196;2023-07-20T03:13:33;101243.97;;;12.99;100.00
71666;BME280;59503;53.486;10.196;2023-07-20T03:15:58;101254.22;;;13.02;100.00
71666;BME280;59503;53.486;10.196;2023-07-20T03:18:23;101256.94;;;13.02;100.00
71666;BME280;59503;53.486;10.196;2023-07-20T03:20:49;101260.44;;;13.02;100.00
71666;BME280;59503;53.486;10.196;2023-07-20T03:23:15;101263.50;;;13.01;100.00
71666;BME280;59503;53.486;10.196;2023-07-20T03:25:41;101256.03;;;12.98;100.00
71666;BME280;59503;53.486;10.196;2023-07-20T03:28:06;101257.59;;;12.99;100.00
71666;BME280;59503;53.486;10.196;2023-07-20T03:30:32;101252.66;;;13.04;100.00
71666;BME280;59503;53.486;10.196;2023-07-20T03:32:58;101255.41;;;13.04;100.00
71666;BME280;59503;53.486;10.196;2023-07-20T03:35:23;101241.59;;;12.97;100.00
71666;BME280;59503;53.486;10.196;2023-07-20T03:37:49;101250.31;;;13.03;100.00
71666;BME280;59503;53.486;10.196;2023-07-20T03:40:14;101257.00;;;13.05;100.00
71666;BME280;59503;53.486;10.196;2023-07-20T03:42:41;101256.13;;;13.01;100.00
71666;BME280;59503;53.486;10.196;2023-07-20T03:45:07;101253.31;;;12.98;100.00
71666;BME280;59503;53.486;10.196;2023-07-20T03:47:33;101267.06;;;13.01;100.00
71666;BME280;59503;53.486;10.196;2023-07-20T03:49:58;101265.53;;;13.04;100.00
71666;BME280;59503;53.486;10.196;2023-07-20T03:52:24;101259.28;;;13.03;100.00
71666;BME280;59503;53.486;10.196;2023-07-20T03:54:49;101260.00;;;13.00;100.00
71666;BME280;59503;53.486;10.196;2023-07-20T03:57:16;101266.97;;;12.98;100.00
71666;BME280;59503;53.486;10.196;2023-07-20T03:59:45;101266.91;;;12.94;100.00
71666;BME280;59503;53.486;10.196;2023-07-20T04:02:14;101259.38;;;12.88;100.00
71666;BME280;59503;53.486;10.196;2023-07-20T04:04:40;101266.09;;;12.94;100.00
71666;BME280;59503;53.486;10.196;2023-07-20T04:07:05;101272.78;;;12.96;100.00
71666;BME280;59503;53.486;10.196;2023-07-20T04:09:31;101269.69;;;12.98;100.00
71666;BME280;59503;53.486;10.196;2023-07-20T04:11:57;101261.06;;;12.96;100.00
71666;BME280;59503;53.486;10.196;2023-07-20T04:14:22;101258.13;;;13.04;100.00
71666;BME280;59503;53.486;10.196;2023-07-20T04:16:48;101264.44;;;13.08;100.00
71666;BME280;59503;53.486;10.196;2023-07-20T04:19:13;101258.94;;;13.05;100.00
71666;BME280;59503;53.486;10.196;2023-07-20T04:21:42;101263.28;;;13.09;100.00
71666;BME280;59503;53.486;10.196;2023-07-20T04:24:07;101269.22;;;13.15;100.00
71666;BME280;59503;53.486;10.196;2023-07-20T04:26:33;101275.16;;;13.20;100.00
71666;BME280;59503;53.486;10.196;2023-07-20T04:28:58;101269.41;;;13.25;100.00
71666;BME280;59503;53.486;10.196;2023-07-20T04:31:26;101270.91;;;13.23;100.00
71666;BME280;59503;53.486;10.196;2023-07-20T04:33:52;101272.53;;;13.27;100.00
71666;BME280;59503;53.486;10.196;2023-07-20T04:36:17;101276.53;;;13.33;100.00
71666;BME280;59503;53.486;10.196;2023-07-20T04:38:47;101276.22;;;13.38;100.00
71666;BME280;59503;53.486;10.196;2023-07-20T04:41:13;101273.19;;;13.43;100.00
71666;BME280;59503;53.486;10.196;2023-07-20T04:43:44;101279.13;;;13.49;100.00
71666;BME280;59503;53.486;10.196;2023-07-20T04:46:10;101284.63;;;13.52;100.00
71666;BME280;59503;53.486;10.196;2023-07-20T04:48:36;101273.28;;;13.50;100.00
71666;BME280;59503;53.486;10.196;2023-07-20T04:51:02;101282.38;;;13.58;100.00
71666;BME280;59503;53.486;10.196;2023-07-20T04:53:28;101283.59;;;13.60;100.00
71666;BME280;59503;53.486;10.196;2023-07-20T04:55:53;101281.63;;;13.61;100.00
71666;BME280;59503;53.486;10.196;2023-07-20T04:58:20;101280.06;;;13.60;100.00
71666;BME280;59503;53.486;10.196;2023-07-20T05:00:48;101281.25;;;13.62;100.00
71666;BME280;59503;53.486;10.196;2023-07-20T05:03:13;101293.34;;;13.61;100.00
71666;BME280;59503;53.486;10.196;2023-07-20T05:05:39;101283.63;;;13.64;100.00
71666;BME280;59503;53.486;10.196;2023-07-20T05:08:05;101289.88;;;13.64;100.00
71666;BME280;59503;53.486;10.196;2023-07-20T05:10:30;101287.56;;;13.66;100.00
71666;BME280;59503;53.486;10.196;2023-07-20T05:12:56;101280.22;;;13.70;100.00
71666;BME280;59503;53.486;10.196;2023-07-20T05:15:21;101283.00;;;13.74;100.00
71666;BME280;59503;53.486;10.196;2023-07-20T05:17:46;101284.97;;;13.77;100.00
71666;BME280;59503;53.486;10.196;2023-07-20T05:20:14;101287.44;;;13.86;100.00
71666;BME280;59503;53.486;10.196;2023-07-20T05:22:40;101286.69;;;13.89;100.00
71666;BME280;59503;53.486;10.196;2023-07-20T05:25:09;101287.88;;;13.88;100.00
71666;BME280;59503;53.486;10.196;2023-07-20T05:27:38;101293.00;;;13.93;100.00
71666;BME280;59503;53.486;10.196;2023-07-20T05:30:05;101291.94;;;14.01;100.00
71666;BME280;59503;53.486;10.196;2023-07-20T05:32:32;101282.19;;;14.03;100.00
71666;BME280;59503;53.486;10.196;2023-07-20T05:34:58;101291.94;;;14.01;100.00
71666;BME280;59503;53.486;10.196;2023-07-20T05:37:24;101293.97;;;14.07;100.00
71666;BME280;59503;53.486;10.196;2023-07-20T05:39:49;101293.31;;;14.17;100.00
71666;BME280;59503;53.486;10.196;2023-07-20T05:42:15;101290.38;;;14.29;100.00
71666;BME280;59503;53.486;10.196;2023-07-20T05:44:41;101284.28;;;14.43;100.00
71666;BME280;59503;53.486;10.196;2023-07-20T05:47:06;101285.63;;;14.59;100.00
71666;BME280;59503;53.486;10.196;2023-07-20T05:49:32;101283.38;;;14.72;100.00
71666;BME280;59503;53.486;10.196;2023-07-20T05:51:57;101288.13;;;14.75;100.00
71666;BME280;59503;53.486;10.196;2023-07-20T05:54:26;101286.88;;;14.69;100.00
71666;BME280;59503;53.486;10.196;2023-07-20T05:56:52;101290.19;;;14.85;100.00
71666;BME280;59503;53.486;10.196;2023-07-20T05:59:18;101285.66;;;15.03;100.00
71666;BME280;59503;53.486;10.196;2023-07-20T06:01:45;101297.06;;;15.12;100.00
71666;BME280;59503;53.486;10.196;2023-07-20T06:04:10;101289.66;;;15.16;100.00
71666;BME280;59503;53.486;10.196;2023-07-20T06:06:35;101285.84;;;15.28;100.00
71666;BME280;59503;53.486;10.196;2023-07-20T06:09:01;101298.78;;;15.34;100.00
71666;BME280;59503;53.486;10.196;2023-07-20T06:11:30;101291.78;;;15.37;100.00
71666;BME280;59503;53.486;10.196;2023-07-20T06:13:56;101293.78;;;15.40;100.00
71666;BME280;59503;53.486;10.196;2023-07-20T06:16:22;101298.59;;;15.57;100.00
71666;BME280;59503;53.486;10.196;2023-07-20T06:18:47;101298.19;;;15.55;100.00
71666;BME280;59503;53.486;10.196;2023-07-20T06:21:13;101299.06;;;15.69;100.00
71666;BME280;59503;53.486;10.196;2023-07-20T06:23:38;101298.75;;;15.81;100.00
71666;BME280;59503;53.486;10.196;2023-07-20T06:26:06;101306.72;;;16.07;100.00
71666;BME280;59503;53.486;10.196;2023-07-20T06:28:31;101300.53;;;16.32;100.00
71666;BME280;59503;53.486;10.196;2023-07-20T06:31:01;101304.53;;;16.45;100.00
71666;BME280;59503;53.486;10.196;2023-07-20T06:33:26;101310.44;;;16.54;100.00
71666;BME280;59503;53.486;10.196;2023-07-20T06:35:52;101307.34;;;16.66;100.00
71666;BME280;59503;53.486;10.196;2023-07-20T06:38:18;101301.88;;;16.76;100.00
71666;BME280;59503;53.486;10.196;2023-07-20T06:40:46;101307.00;;;16.78;100.00
71666;BME280;59503;53.486;10.196;2023-07-20T06:43:11;101298.75;;;16.85;100.00
71666;BME280;59503;53.486;10.196;2023-07-20T06:45:37;101301.13;;;17.21;100.00
71666;BME280;59503;53.486;10.196;2023-07-20T06:48:02;101305.44;;;17.29;100.00
71666;BME280;59503;53.486;10.196;2023-07-20T06:50:28;101307.81;;;17.42;100.00
71666;BME280;59503;53.486;10.196;2023-07-20T06:52:54;101307.41;;;17.36;100.00
71666;BME280;59503;53.486;10.196;2023-07-20T06:55:19;101297.59;;;17.24;100.00
71666;BME280;59503;53.486;10.196;2023-07-20T06:57:45;101304.28;;;17.13;100.00
71666;BME280;59503;53.486;10.196;2023-07-20T07:00:10;101307.03;;;17.27;100.00
71666;BME280;59503;53.486;10.196;2023-07-20T07:02:36;101294.06;;;17.31;100.00
71666;BME280;59503;53.486;10.196;2023-07-20T07:05:02;101304.69;;;17.50;100.00
71666;BME280;59503;53.486;10.196;2023-07-20T07:07:27;101301.50;;;17.69;100.00
71666;BME280;59503;53.486;10.196;2023-07-20T07:09:53;101308.19;;;17.61;100.00
71666;BME280;59503;53.486;10.196;2023-07-20T07:12:18;101297.22;;;17.40;100.00
71666;BME280;59503;53.486;10.196;2023-07-20T07:14:43;101303.88;;;17.32;100.00
71666;BME280;59503;53.486;10.196;2023-07-20T07:17:09;101310.50;;;16.82;100.00
71666;BME280;59503;53.486;10.196;2023-07-20T07:19:34;101310.84;;;16.52;100.00
71666;BME280;59503;53.486;10.196;2023-07-20T07:22:01;101310.13;;;16.73;100.00
71666;BME280;59503;53.486;10.196;2023-07-20T07:24:27;101309.38;;;17.11;100.00
71666;BME280;59503;53.486;10.196;2023-07-20T07:26:58;101315.63;;;17.71;100.00
71666;BME280;59503;53.486;10.196;2023-07-20T07:29:24;101304.50;;;18.13;100.00
71666;BME280;59503;53.486;10.196;2023-07-20T07:31:49;101304.06;;;18.39;100.00
71666;BME280;59503;53.486;10.196;2023-07-20T07:34:15;101300.41;;;18.56;100.00
71666;BME280;59503;53.486;10.196;2023-07-20T07:36:40;101299.81;;;18.10;100.00
71666;BME280;59503;53.486;10.196;2023-07-20T07:39:05;101311.69;;;17.83;100.00
71666;BME280;59503;53.486;10.196;2023-07-20T07:41:31;101297.19;;;17.26;100.00
71666;BME280;59503;53.486;10.196;2023-07-20T07:43:56;101303.09;;;17.28;100.00
71666;BME280;59503;53.486;10.196;2023-07-20T07:46:22;101305.44;;;17.58;100.00
71666;BME280;59503;53.486;10.196;2023-07-20T07:48:47;101318.78;;;17.77;100.00
71666;BME280;59503;53.486;10.196;2023-07-20T07:51:13;101317.81;;;18.39;100.00
71666;BME280;59503;53.486;10.196;2023-07-20T07:53:39;101317.50;;;18.92;100.00
71666;BME280;59503;53.486;10.196;2023-07-20T07:56:07;101318.06;;;19.21;100.00
71666;BME280;59503;53.486;10.196;2023-07-20T07:58:32;101317.38;;;19.10;100.00
71666;BME280;59503;53.486;10.196;2023-07-20T08:00:58;101321.00;;;19.47;97.59
71666;BME280;59503;53.486;10.196;2023-07-20T08:03:23;101324.59;;;19.85;93.51
71666;BME280;59503;53.486;10.196;2023-07-20T08:05:49;101328.88;;;19.49;82.39
71666;BME280;59503;53.486;10.196;2023-07-20T08:08:15;101330.63;;;19.25;86.65
71666;BME280;59503;53.486;10.196;2023-07-20T08:10:40;101320.56;;;18.43;89.61
71666;BME280;59503;53.486;10.196;2023-07-20T08:13:06;101328.06;;;18.25;100.00
71666;BME280;59503;53.486;10.196;2023-07-20T08:15:31;101336.00;;;18.05;91.94
71666;BME280;59503;53.486;10.196;2023-07-20T08:17:56;101334.06;;;17.95;92.96
71666;BME280;59503;53.486;10.196;2023-07-20T08:20:22;101329.94;;;18.52;97.26
71666;BME280;59503;53.486;10.196;2023-07-20T08:22:54;101332.53;;;18.81;90.56
71666;BME280;59503;53.486;10.196;2023-07-20T08:25:20;101330.81;;;19.01;90.67
71666;BME280;59503;53.486;10.196;2023-07-20T08:27:45;101329.44;;;19.30;87.03
71666;BME280;59503;53.486;10.196;2023-07-20T08:30:12;101324.97;;;19.46;86.24
71666;BME280;59503;53.486;10.196;2023-07-20T08:32:38;101315.88;;;19.02;79.39
71666;BME280;59503;53.486;10.196;2023-07-20T08:35:03;101339.25;;;18.76;77.68
71666;BME280;59503;53.486;10.196;2023-07-20T08:37:29;101324.16;;;18.22;83.48
71666;BME280;59503;53.486;10.196;2023-07-20T08:39:54;101335.88;;;18.33;85.12
71666;BME280;59503;53.486;10.196;2023-07-20T08:42:20;101330.06;;;18.17;82.53
71666;BME280;59503;53.486;10.196;2023-07-20T08:44:48;101340.06;;;18.73;81.32
71666;BME280;59503;53.486;10.196;2023-07-20T08:47:15;101335.59;;;19.48;87.09
71666;BME280;59503;53.486;10.196;2023-07-20T08:49:41;101332.91;;;19.82;80.68
71666;BME280;59503;53.486;10.196;2023-07-20T08:52:08;101329.34;;;20.18;81.46
71666;BME280;59503;53.486;10.196;2023-07-20T08:54:34;101332.88;;;20.22;74.04
71666;BME280;59503;53.486;10.196;2023-07-20T08:57:05;101333.22;;;20.28;71.29
71666;BME280;59503;53.486;10.196;2023-07-20T08:59:31;101329.78;;;20.47;68.73
71666;BME280;59503;53.486;10.196;2023-07-20T09:01:58;101333.81;;;20.42;67.22
71666;BME280;59503;53.486;10.196;2023-07-20T09:04:24;101338.19;;;20.96;65.16
71666;BME280;59503;53.486;10.196;2023-07-20T09:06:50;101338.31;;;20.59;66.72
71666;BME280;59503;53.486;10.196;2023-07-20T09:09:16;101343.47;;;20.57;69.21
71666;BME280;59503;53.486;10.196;2023-07-20T09:11:42;101348.34;;;20.46;73.29
71666;BME280;59503;53.486;10.196;2023-07-20T09:14:09;101355.66;;;19.52;86.50
71666;BME280;59503;53.486;10.196;2023-07-20T09:16:54;101355.97;;;18.23;97.49
71666;BME280;59503;53.486;10.196;2023-07-20T09:19:20;101349.44;;;17.44;100.00
71666;BME280;59503;53.486;10.196;2023-07-20T09:21:48;101345.50;;;17.23;100.00
71666;BME280;59503;53.486;10.196;2023-07-20T09:24:14;101343.53;;;17.77;100.00
71666;BME280;59503;53.486;10.196;2023-07-20T09:26:42;101338.25;;;18.31;100.00
71666;BME280;59503;53.486;10.196;2023-07-20T09:29:08;101347.50;;;18.76;100.00
71666;BME280;59503;53.486;10.196;2023-07-20T09:31:37;101346.38;;;18.67;98.10
71666;BME280;59503;53.486;10.196;2023-07-20T09:34:07;101342.03;;;18.69;89.07
71666;BME280;59503;53.486;10.196;2023-07-20T09:36:36;101344.03;;;19.30;84.90
71666;BME280;59503;53.486;10.196;2023-07-20T09:39:03;101337.28;;;19.35;77.50
71666;BME280;59503;53.486;10.196;2023-07-20T09:41:29;101337.97;;;19.87;73.67
71666;BME280;59503;53.486;10.196;2023-07-20T09:43:54;101331.22;;;20.28;70.35
71666;BME280;59503;53.486;10.196;2023-07-20T09:46:20;101333.03;;;20.68;67.64
71666;BME280;59503;53.486;10.196;2023-07-20T09:48:54;101337.91;;;20.61;65.73
71666;BME280;59503;53.486;10.196;2023-07-20T09:51:22;101342.34;;;20.81;68.61
71666;BME280;59503;53.486;10.196;2023-07-20T09:53:48;101350.28;;;20.79;67.37
71666;BME280;59503;53.486;10.196;2023-07-20T09:56:16;101364.94;;;20.09;80.49
71666;BME280;59503;53.486;10.196;2023-07-20T09:58:44;101378.38;;;18.25;100.00
71666;BME280;59503;53.486;10.196;2023-07-20T10:01:12;101376.88;;;17.26;100.00
71666;BME280;59503;53.486;10.196;2023-07-20T10:03:41;101379.53;;;16.77;100.00
71666;BME280;59503;53.486;10.196;2023-07-20T10:06:13;101372.69;;;16.32;100.00
71666;BME280;59503;53.486;10.196;2023-07-20T10:08:41;101370.25;;;16.16;100.00
71666;BME280;59503;53.486;10.196;2023-07-20T10:11:07;101366.66;;;16.02;100.00
71666;BME280;59503;53.486;10.196;2023-07-20T10:13:38;101365.53;;;16.13;100.00
71666;BME280;59503;53.486;10.196;2023-07-20T10:16:10;101369.19;;;16.39;100.00
71666;BME280;59503;53.486;10.196;2023-07-20T10:21:20;101361.94;;;16.85;100.00
71666;BME280;59503;53.486;10.196;2023-07-20T10:23:48;101360.38;;;16.98;100.00
71666;BME280;59503;53.486;10.196;2023-07-20T10:26:14;101349.41;;;17.29;100.00
71666;BME280;59503;53.486;10.196;2023-07-20T10:28:39;101352.97;;;17.51;100.00
71666;BME280;59503;53.486;10.196;2023-07-20T10:31:08;101349.03;;;17.73;100.00
71666;BME280;59503;53.486;10.196;2023-07-20T10:33:35;101344.25;;;18.05;100.00
71666;BME280;59503;53.486;10.196;2023-07-20T10:36:03;101334.03;;;18.09;100.00
71666;BME280;59503;53.486;10.196;2023-07-20T10:41:33;101342.94;;;18.45;100.00
71666;BME280;59503;53.486;10.196;2023-07-20T10:44:07;101339.78;;;18.50;100.00
71666;BME280;59503;53.486;10.196;2023-07-20T10:46:43;101333.50;;;18.46;100.00
71666;BME280;59503;53.486;10.196;2023-07-20T10:49:10;101335.09;;;18.33;95.32
71666;BME280;59503;53.486;10.196;2023-07-20T10:51:43;101329.16;;;18.45;94.46
71666;BME280;59503;53.486;10.196;2023-07-20T10:56:56;101331.19;;;19.03;95.95
71666;BME280;59503;53.486;10.196;2023-07-20T11:01:56;101338.97;;;20.03;84.84
71666;BME280;59503;53.486;10.196;2023-07-20T11:04:52;101337.06;;;20.64;88.45
71666;BME280;59503;53.486;10.196;2023-07-20T11:07:36;101335.56;;;20.29;77.01
71666;BME280;59503;53.486;10.196;2023-07-20T11:10:13;101348.88;;;20.01;76.13
71666;BME280;59503;53.486;10.196;2023-07-20T11:12:40;101352.16;;;19.44;78.97
71666;BME280;59503;53.486;10.196;2023-07-20T11:15:06;101358.91;;;19.40;74.99
71666;BME280;59503;53.486;10.196;2023-07-20T11:17:32;101356.34;;;19.63;74.83
71666;BME280;59503;53.486;10.196;2023-07-20T11:19:59;101353.50;;;20.11;75.03
71666;BME280;59503;53.486;10.196;2023-07-20T11:22:26;101350.47;;;20.35;74.15
71666;BME280;59503;53.486;10.196;2023-07-20T11:24:55;101370.34;;;20.20;73.31
71666;BME280;59503;53.486;10.196;2023-07-20T11:27:21;101361.97;;;20.30;71.56
71666;BME280;59503;53.486;10.196;2023-07-20T11:29:48;101362.28;;;20.36;77.66
71666;BME280;59503;53.486;10.196;2023-07-20T11:32:23;101362.88;;;20.20;74.46
71666;BME280;59503;53.486;10.196;2023-07-20T11:34:49;101371.22;;;20.10;79.20
71666;BME280;59503;53.486;10.196;2023-07-20T11:37:15;101380.75;;;19.64;82.83
71666;BME280;59503;53.486;10.196;2023-07-20T11:39:41;101374.28;;;18.76;84.56
71666;BME280;59503;53.486;10.196;2023-07-20T11:42:08;101368.91;;;18.47;87.12
71666;BME280;59503;53.486;10.196;2023-07-20T11:44:33;101370.16;;;18.15;84.20
71666;BME280;59503;53.486;10.196;2023-07-20T11:47:10;101375.66;;;18.18;88.31
71666;BME280;59503;53.486;10.196;2023-07-20T11:49:39;101377.28;;;17.95;83.56
71666;BME280;59503;53.486;10.196;2023-07-20T11:52:06;101375.72;;;17.83;86.67
71666;BME280;59503;53.486;10.196;2023-07-20T11:54:34;101368.63;;;18.07;83.47
71666;BME280;59503;53.486;10.196;2023-07-20T11:57:02;101372.06;;;18.39;86.12
71666;BME280;59503;53.486;10.196;2023-07-20T11:59:28;101381.31;;;18.80;85.86
71666;BME280;59503;53.486;10.196;2023-07-20T12:01:54;101379.25;;;19.02;83.02
71666;BME280;59503;53.486;10.196;2023-07-20T12:04:22;101369.88;;;19.47;80.61
71666;BME280;59503;53.486;10.196;2023-07-20T12:06:47;101373.47;;;19.85;82.80
71666;BME280;59503;53.486;10.196;2023-07-20T12:09:16;101367.31;;;20.07;85.91
71666;BME280;59503;53.486;10.196;2023-07-20T12:11:43;101369.38;;;20.37;75.52
71666;BME280;59503;53.486;10.196;2023-07-20T12:14:10;101371.31;;;20.70;75.00
71666;BME280;59503;53.486;10.196;2023-07-20T12:16:37;101364.56;;;20.74;74.43
71666;BME280;59503;53.486;10.196;2023-07-20T12:19:12;101367.25;;;20.14;71.78
71666;BME280;59503;53.486;10.196;2023-07-20T12:21:39;101371.53;;;19.82;73.32
71666;BME280;59503;53.486;10.196;2023-07-20T12:24:07;101368.16;;;20.04;77.77
71666;BME280;59503;53.486;10.196;2023-07-20T12:26:34;101359.00;;;20.11;80.57
71666;BME280;59503;53.486;10.196;2023-07-20T12:29:00;101371.41;;;20.33;68.65
71666;BME280;59503;53.486;10.196;2023-07-20T12:31:27;101359.84;;;20.41;69.87
71666;BME280;59503;53.486;10.196;2023-07-20T12:33:53;101352.38;;;20.98;69.15
71666;BME280;59503;53.486;10.196;2023-07-20T12:36:20;101362.88;;;21.34;73.05
71666;BME280;59503;53.486;10.196;2023-07-20T12:38:46;101353.94;;;21.26;63.48
71666;BME280;59503;53.486;10.196;2023-07-20T12:41:13;101371.00;;;21.44;64.13
71666;BME280;59503;53.486;10.196;2023-07-20T12:43:45;101359.25;;;21.14;64.45
71666;BME280;59503;53.486;10.196;2023-07-20T12:46:12;101353.97;;;21.00;69.17
71666;BME280;59503;53.486;10.196;2023-07-20T12:48:39;101363.09;;;20.66;70.40